Time,TemperatureF,DewpointF,PressureIn,WindDirection,WindDirectionDegrees,WindSpeedMPH,WindSpeedGustMPH,Humidity,HourlyPrecipIn,Conditions,Clouds,dailyrainin,SoftwareType,DateUTC
2013-05-11 00:01:00,72.1,61.8,30.08,SE,135,0.7,2.2,70,0.00,,,0.00,pywws,2013-05-11 04:01:00,
2013-05-11 00:06:00,72.0,61.6,30.08,SE,135,1.6,3.1,70,0.00,,,0.00,pywws,2013-05-11 04:06:00,
2013-05-11 00:11:00,71.8,61.9,30.08,SE,135,0.7,2.2,71,0.00,,,0.00,pywws,2013-05-11 04:11:00,
2013-05-11 00:16:00,71.8,61.5,30.08,SE,135,0.7,1.6,70,0.00,,,0.00,pywws,2013-05-11 04:16:00,
2013-05-11 00:21:00,71.6,61.3,30.08,SSW,202,1.6,4.5,70,0.00,,,0.00,pywws,2013-05-11 04:21:00,
2013-05-11 00:31:00,71.6,61.3,30.08,SE,135,0.0,1.6,70,0.00,,,0.00,pywws,2013-05-11 04:31:00,
2013-05-11 00:36:00,71.4,61.1,30.08,South,180,0.7,2.2,70,0.00,,,0.00,pywws,2013-05-11 04:36:00,
2013-05-11 00:41:00,71.2,60.9,30.08,South,180,0.7,2.2,70,0.00,,,0.00,pywws,2013-05-11 04:41:00,
2013-05-11 00:46:00,71.1,60.8,30.08,South,180,1.6,3.1,70,0.00,,,0.00,pywws,2013-05-11 04:46:00,
2013-05-11 00:51:00,70.9,60.6,30.08,SW,225,0.0,1.6,70,0.00,,,0.00,pywws,2013-05-11 04:51:00,
2013-05-11 01:01:00,70.7,60.8,30.08,NW,315,0.0,0.7,71,0.00,,,0.00,pywws,2013-05-11 05:01:00,
2013-05-11 01:06:00,70.7,60.8,30.08,North,0,0.0,0.0,71,0.00,,,0.00,pywws,2013-05-11 05:06:00,
2013-05-11 01:11:00,70.5,60.7,30.08,SE,135,0.0,1.6,71,0.00,,,0.00,pywws,2013-05-11 05:11:00,
2013-05-11 01:16:00,70.5,60.7,30.09,SE,135,0.7,1.6,71,0.00,,,0.00,pywws,2013-05-11 05:16:00,
2013-05-11 01:21:00,70.3,60.5,30.09,WSW,248,0.7,3.1,71,0.00,,,0.00,pywws,2013-05-11 05:21:00,
2013-05-11 01:31:00,70.3,60.5,30.09,South,180,0.0,0.7,71,0.00,,,0.00,pywws,2013-05-11 05:31:00,
2013-05-11 01:35:00,69.8,60.4,30.09,SW,225,0.0,0.7,72,0.00,,,0.00,pywws,2013-05-11 05:35:00,
2013-05-11 01:40:00,69.6,60.6,30.09,SW,225,0.0,1.6,73,0.00,,,0.00,pywws,2013-05-11 05:40:00,
2013-05-11 01:45:00,69.6,60.6,30.09,SE,135,0.0,0.7,73,0.00,,,0.00,pywws,2013-05-11 05:45:00,
2013-05-11 01:50:00,69.4,60.8,30.09,South,180,1.6,2.2,74,0.00,,,0.00,pywws,2013-05-11 05:50:00,
2013-05-11 02:01:00,69.3,60.6,30.09,South,180,0.7,1.6,74,0.00,,,0.00,pywws,2013-05-11 06:01:00,
2013-05-11 02:05:00,69.3,60.6,30.09,East,90,0.7,1.6,74,0.00,,,0.00,pywws,2013-05-11 06:05:00,
2013-05-11 02:10:00,69.1,60.4,30.09,SW,225,0.0,0.7,74,0.00,,,0.00,pywws,2013-05-11 06:10:00,
2013-05-11 02:15:00,69.1,60.4,30.09,SE,135,0.7,1.6,74,0.00,,,0.00,pywws,2013-05-11 06:15:00,
2013-05-11 02:20:00,69.1,60.4,30.09,South,180,0.0,1.6,74,0.00,,,0.00,pywws,2013-05-11 06:20:00,
2013-05-11 02:31:00,68.9,60.3,30.09,ESE,112,0.0,1.6,74,0.00,,,0.00,pywws,2013-05-11 06:31:00,
2013-05-11 02:35:00,68.9,60.6,30.09,SE,135,0.7,1.6,75,0.00,,,0.00,pywws,2013-05-11 06:35:00,
2013-05-11 02:40:00,68.7,60.5,30.09,SE,135,0.7,2.2,75,0.00,,,0.00,pywws,2013-05-11 06:40:00,
2013-05-11 02:45:00,68.7,60.5,30.09,SE,135,0.7,1.6,75,0.00,,,0.00,pywws,2013-05-11 06:45:00,
2013-05-11 02:50:00,68.5,60.3,30.09,SE,135,0.0,1.6,75,0.00,,,0.00,pywws,2013-05-11 06:50:00,
2013-05-11 03:01:00,68.5,60.7,30.09,SE,135,0.0,0.7,76,0.00,,,0.00,pywws,2013-05-11 07:01:00,
2013-05-11 03:06:00,68.2,60.7,30.09,SE,135,0.0,1.6,77,0.00,,,0.00,pywws,2013-05-11 07:06:00,
2013-05-11 03:11:00,68.2,60.7,30.09,South,180,0.7,2.2,77,0.00,,,0.00,pywws,2013-05-11 07:11:00,
2013-05-11 03:16:00,68.0,60.5,30.10,South,180,0.7,1.6,77,0.00,,,0.00,pywws,2013-05-11 07:16:00,
2013-05-11 03:21:00,67.8,60.3,30.10,SE,135,0.7,1.6,77,0.00,,,0.00,pywws,2013-05-11 07:21:00,
2013-05-11 03:31:00,67.6,60.5,30.10,SE,135,0.0,0.7,78,0.00,,,0.00,pywws,2013-05-11 07:31:00,
2013-05-11 03:36:00,67.1,60.0,30.10,SE,135,0.7,1.6,78,0.00,,,0.00,pywws,2013-05-11 07:36:00,
2013-05-11 03:41:00,67.3,60.5,30.10,SE,135,0.0,1.6,79,0.00,,,0.00,pywws,2013-05-11 07:41:00,
2013-05-11 03:46:00,68.7,61.9,30.10,SE,135,0.0,0.7,79,0.00,,,0.00,pywws,2013-05-11 07:46:00,
2013-05-11 03:51:00,66.9,60.2,30.10,SE,135,0.0,0.7,79,0.00,,,0.00,pywws,2013-05-11 07:51:00,
2013-05-11 04:01:00,66.9,60.2,30.10,SE,135,0.7,1.6,79,0.00,,,0.00,pywws,2013-05-11 08:01:00,
2013-05-11 04:06:00,66.9,60.5,30.10,SE,135,0.7,1.6,80,0.00,,,0.00,pywws,2013-05-11 08:06:00,
2013-05-11 04:11:00,66.6,60.2,30.10,SE,135,0.0,1.6,80,0.00,,,0.00,pywws,2013-05-11 08:11:00,
2013-05-11 04:16:00,66.6,60.2,30.11,East,90,0.0,1.6,80,0.00,,,0.00,pywws,2013-05-11 08:16:00,
2013-05-11 04:21:00,66.6,60.2,30.11,South,180,0.0,0.7,80,0.00,,,0.00,pywws,2013-05-11 08:21:00,
2013-05-11 04:31:00,66.4,60.0,30.11,East,90,0.0,0.0,80,0.00,,,0.00,pywws,2013-05-11 08:31:00,
2013-05-11 04:36:00,66.2,59.8,30.11,East,90,0.0,0.0,80,0.00,,,0.00,pywws,2013-05-11 08:36:00,
2013-05-11 04:41:00,66.2,59.8,30.11,South,180,0.0,0.7,80,0.00,,,0.00,pywws,2013-05-11 08:41:00,
2013-05-11 04:46:00,66.2,60.2,30.11,SE,135,0.7,1.6,81,0.00,,,0.00,pywws,2013-05-11 08:46:00,
2013-05-11 04:51:00,66.2,60.2,30.11,SE,135,0.0,0.0,81,0.00,,,0.00,pywws,2013-05-11 08:51:00,
2013-05-11 05:01:00,66.2,60.2,30.11,SE,135,0.7,2.2,81,0.00,,,0.00,pywws,2013-05-11 09:01:00,
2013-05-11 05:06:00,66.0,60.0,30.11,SE,135,0.0,0.7,81,0.00,,,0.00,pywws,2013-05-11 09:06:00,
2013-05-11 05:11:00,66.0,60.0,30.11,SE,135,0.0,0.7,81,0.00,,,0.00,pywws,2013-05-11 09:11:00,
2013-05-11 05:16:00,65.8,59.8,30.11,South,180,0.0,0.7,81,0.00,,,0.00,pywws,2013-05-11 09:16:00,
2013-05-11 05:21:00,65.8,59.8,30.11,South,180,0.0,0.7,81,0.00,,,0.00,pywws,2013-05-11 09:21:00,
2013-05-11 05:31:00,65.7,60.0,30.11,SE,135,0.0,0.7,82,0.00,,,0.00,pywws,2013-05-11 09:31:00,
2013-05-11 05:36:00,65.3,60.0,30.11,SE,135,0.0,1.6,83,0.00,,,0.00,pywws,2013-05-11 09:36:00,
2013-05-11 05:41:00,65.1,59.8,30.11,SE,135,0.0,0.7,83,0.00,,,0.00,pywws,2013-05-11 09:41:00,
2013-05-11 05:46:00,65.1,59.8,30.12,West,270,0.0,0.0,83,0.00,,,0.00,pywws,2013-05-11 09:46:00,
2013-05-11 05:51:00,64.9,59.6,30.12,West,270,0.0,0.0,83,0.00,,,0.00,pywws,2013-05-11 09:51:00,
2013-05-11 06:01:00,64.8,59.5,30.12,East,90,0.0,0.0,83,0.00,,,0.00,pywws,2013-05-11 10:01:00,
2013-05-11 06:06:00,64.6,59.6,30.12,NE,45,0.0,0.0,84,0.00,,,0.00,pywws,2013-05-11 10:06:00,
2013-05-11 06:11:00,64.6,59.6,30.12,East,90,0.0,0.0,84,0.00,,,0.00,pywws,2013-05-11 10:11:00,
2013-05-11 06:16:00,64.6,59.6,30.12,East,90,0.0,0.0,84,0.00,,,0.00,pywws,2013-05-11 10:16:00,
2013-05-11 06:21:00,64.8,59.8,30.12,East,90,0.0,0.0,84,0.00,,,0.00,pywws,2013-05-11 10:21:00,
2013-05-11 06:31:00,64.8,60.1,30.12,East,90,0.0,0.0,85,0.00,,,0.00,pywws,2013-05-11 10:31:00,
2013-05-11 06:36:00,63.9,59.3,30.13,South,180,0.0,0.0,85,0.00,,,0.00,pywws,2013-05-11 10:36:00,
2013-05-11 06:41:00,63.9,59.3,30.13,South,180,0.0,0.0,85,0.00,,,0.00,pywws,2013-05-11 10:41:00,
2013-05-11 06:46:00,63.7,59.4,30.13,South,180,0.0,0.0,86,0.00,,,0.00,pywws,2013-05-11 10:46:00,
2013-05-11 06:51:00,63.9,59.6,30.13,South,180,0.0,0.0,86,0.00,,,0.00,pywws,2013-05-11 10:51:00,
2013-05-11 07:01:00,63.9,59.6,30.13,SW,225,0.0,0.0,86,0.00,,,0.00,pywws,2013-05-11 11:01:00,
2013-05-11 07:06:00,63.9,59.6,30.13,NE,45,0.0,0.0,86,0.00,,,0.00,pywws,2013-05-11 11:06:00,
2013-05-11 07:11:00,64.0,59.8,30.13,NE,45,0.0,0.0,86,0.00,,,0.00,pywws,2013-05-11 11:11:00,
2013-05-11 07:16:00,64.0,59.8,30.13,SE,135,0.0,0.0,86,0.00,,,0.00,pywws,2013-05-11 11:16:00,
2013-05-11 07:21:00,64.2,59.9,30.13,NW,315,0.0,0.0,86,0.00,,,0.00,pywws,2013-05-11 11:21:00,
2013-05-11 07:31:00,64.2,59.9,30.13,SE,135,0.0,0.7,86,0.00,,,0.00,pywws,2013-05-11 11:31:00,
2013-05-11 07:36:00,64.6,60.3,30.13,East,90,0.7,1.6,86,0.00,,,0.00,pywws,2013-05-11 11:36:00,
2013-05-11 07:41:00,64.9,60.6,30.14,NE,45,0.0,0.7,86,0.00,,,0.00,pywws,2013-05-11 11:41:00,
2013-05-11 07:46:00,65.1,60.8,30.14,NE,45,0.0,0.0,86,0.00,,,0.00,pywws,2013-05-11 11:46:00,
2013-05-11 07:51:00,65.8,61.2,30.14,East,90,0.0,0.0,85,0.00,,,0.00,pywws,2013-05-11 11:51:00,
2013-05-11 08:01:00,66.0,61.4,30.14,NW,315,0.0,0.7,85,0.00,,,0.00,pywws,2013-05-11 12:01:00,
2013-05-11 08:06:00,66.4,61.1,30.14,SW,225,0.7,1.6,83,0.00,,,0.00,pywws,2013-05-11 12:06:00,
2013-05-11 08:11:00,66.6,61.2,30.14,East,90,0.0,1.6,83,0.00,,,0.00,pywws,2013-05-11 12:11:00,
2013-05-11 08:16:00,66.7,61.4,30.14,North,0,0.0,0.0,83,0.00,,,0.00,pywws,2013-05-11 12:16:00,
2013-05-11 08:21:00,67.1,61.4,30.14,West,270,1.6,5.4,82,0.00,,,0.00,pywws,2013-05-11 12:21:00,
2013-05-11 08:31:00,67.8,61.4,30.14,WSW,248,1.6,4.5,80,0.00,,,0.00,pywws,2013-05-11 12:31:00,
2013-05-11 08:36:00,68.4,61.6,30.14,West,270,0.0,1.6,79,0.00,,,0.00,pywws,2013-05-11 12:36:00,
2013-05-11 08:41:00,68.5,61.4,30.14,SE,135,0.7,3.1,78,0.00,,,0.00,pywws,2013-05-11 12:41:00,
2013-05-11 08:46:00,68.9,61.4,30.14,South,180,1.6,4.5,77,0.00,,,0.00,pywws,2013-05-11 12:46:00,
2013-05-11 08:51:00,69.4,61.9,30.14,West,270,1.6,3.8,77,0.00,,,0.00,pywws,2013-05-11 12:51:00,
2013-05-11 09:01:00,69.8,61.9,30.14,NW,315,0.7,3.1,76,0.00,,,0.00,pywws,2013-05-11 13:01:00,
2013-05-11 09:06:00,70.0,62.1,30.14,West,270,0.7,3.1,76,0.00,,,0.00,pywws,2013-05-11 13:06:00,
2013-05-11 09:11:00,70.3,62.4,30.14,North,0,0.7,1.6,76,0.00,,,0.00,pywws,2013-05-11 13:11:00,
2013-05-11 09:16:00,70.9,62.9,30.14,SW,225,0.7,1.6,76,0.00,,,0.00,pywws,2013-05-11 13:16:00,
2013-05-11 09:21:00,71.1,62.3,30.14,West,270,0.7,3.8,74,0.00,,,0.00,pywws,2013-05-11 13:21:00,
2013-05-11 09:31:00,71.4,62.7,30.14,North,0,0.0,2.2,74,0.00,,,0.00,pywws,2013-05-11 13:31:00,
2013-05-11 09:36:00,71.8,62.3,30.14,NW,315,0.7,2.2,72,0.00,,,0.00,pywws,2013-05-11 13:36:00,
2013-05-11 09:41:00,72.0,62.4,30.14,South,180,0.0,1.6,72,0.00,,,0.00,pywws,2013-05-11 13:41:00,
2013-05-11 09:46:00,72.3,62.4,30.14,SW,225,0.7,3.1,71,0.00,,,0.00,pywws,2013-05-11 13:46:00,
2013-05-11 09:51:00,72.9,62.9,30.14,SE,135,0.7,1.6,71,0.00,,,0.00,pywws,2013-05-11 13:51:00,
2013-05-11 10:01:00,73.2,63.2,30.14,South,180,0.7,2.2,71,0.00,,,0.00,pywws,2013-05-11 14:01:00,
2013-05-11 10:06:00,73.4,63.0,30.14,SW,225,1.6,3.1,70,0.00,,,0.00,pywws,2013-05-11 14:06:00,
2013-05-11 10:11:00,73.8,63.4,30.14,SE,135,0.0,1.6,70,0.00,,,0.00,pywws,2013-05-11 14:11:00,
2013-05-11 10:16:00,74.1,63.3,30.14,SW,225,0.7,2.2,69,0.00,,,0.00,pywws,2013-05-11 14:16:00,
2013-05-11 10:21:00,74.3,63.5,30.14,West,270,1.6,3.1,69,0.00,,,0.00,pywws,2013-05-11 14:21:00,
2013-05-11 10:31:00,75.4,63.2,30.14,West,270,3.1,5.4,66,0.00,,,0.00,pywws,2013-05-11 14:31:00,
2013-05-11 10:36:00,75.6,63.8,30.14,South,180,1.6,4.5,67,0.00,,,0.00,pywws,2013-05-11 14:36:00,
2013-05-11 10:41:00,75.6,63.8,30.14,East,90,0.0,2.2,67,0.00,,,0.00,pywws,2013-05-11 14:41:00,
2013-05-11 10:46:00,75.6,63.0,30.14,SW,225,2.2,3.8,65,0.00,,,0.00,pywws,2013-05-11 14:46:00,
2013-05-11 10:51:00,75.9,63.7,30.14,South,180,1.6,3.1,66,0.00,,,0.00,pywws,2013-05-11 14:51:00,
2013-05-11 11:01:00,76.3,64.1,30.14,South,180,0.0,2.2,66,0.00,,,0.00,pywws,2013-05-11 15:01:00,
2013-05-11 11:06:00,77.9,64.3,30.13,West,270,1.6,3.8,63,0.00,,,0.00,pywws,2013-05-11 15:06:00,
2013-05-11 11:11:00,78.6,64.9,30.13,West,270,0.0,3.1,63,0.00,,,0.00,pywws,2013-05-11 15:11:00,
2013-05-11 11:16:00,79.3,64.2,30.13,SW,225,1.6,3.1,60,0.00,,,0.00,pywws,2013-05-11 15:16:00,
2013-05-11 11:21:00,79.5,63.9,30.13,SE,135,0.7,3.1,59,0.00,,,0.00,pywws,2013-05-11 15:21:00,
2013-05-11 11:31:00,79.5,63.9,30.13,SSW,202,0.7,3.1,59,0.00,,,0.00,pywws,2013-05-11 15:31:00,
2013-05-11 11:36:00,80.1,63.9,30.13,West,270,1.6,3.1,58,0.00,,,0.00,pywws,2013-05-11 15:36:00,
2013-05-11 11:41:00,81.0,64.8,30.13,WNW,292,0.0,1.6,58,0.00,,,0.00,pywws,2013-05-11 15:41:00,
2013-05-11 11:46:00,81.5,63.7,30.12,SSE,158,2.2,4.5,55,0.00,,,0.00,pywws,2013-05-11 15:46:00,
2013-05-11 11:51:00,81.5,63.7,30.12,South,180,2.2,3.8,55,0.00,,,0.00,pywws,2013-05-11 15:51:00,
2013-05-11 12:01:00,81.1,63.9,30.12,South,180,1.6,3.8,56,0.00,,,0.00,pywws,2013-05-11 16:01:00,
2013-05-11 12:06:00,81.0,63.2,30.12,SE,135,3.1,5.4,55,0.00,,,0.00,pywws,2013-05-11 16:06:00,
2013-05-11 12:11:00,80.4,64.3,30.11,SW,225,1.6,3.1,58,0.00,,,0.00,pywws,2013-05-11 16:11:00,
2013-05-11 12:16:00,80.6,64.4,30.11,West,270,2.2,4.5,58,0.00,,,0.00,pywws,2013-05-11 16:16:00,
2013-05-11 12:21:00,80.2,63.1,30.11,SE,135,3.8,6.0,56,0.00,,,0.00,pywws,2013-05-11 16:21:00,
2013-05-11 12:31:00,79.5,63.4,30.11,NW,315,1.6,3.1,58,0.00,,,0.00,pywws,2013-05-11 16:31:00,
2013-05-11 12:36:00,79.9,63.3,30.11,South,180,1.6,3.1,57,0.00,,,0.00,pywws,2013-05-11 16:36:00,
2013-05-11 12:41:00,81.0,63.8,30.11,West,270,2.2,4.5,56,0.00,,,0.00,pywws,2013-05-11 16:41:00,
2013-05-11 12:46:00,81.1,62.9,30.11,WNW,292,2.2,5.4,54,0.00,,,0.00,pywws,2013-05-11 16:46:00,
2013-05-11 12:51:00,82.0,63.2,30.10,SW,225,1.6,3.1,53,0.00,,,0.00,pywws,2013-05-11 16:51:00,
2013-05-11 13:01:00,81.7,62.3,30.10,South,180,1.6,3.8,52,0.00,,,0.00,pywws,2013-05-11 17:01:00,
2013-05-11 13:06:00,81.5,63.2,30.10,SW,225,3.1,5.4,54,0.00,,,0.00,pywws,2013-05-11 17:06:00,
2013-05-11 13:11:00,82.2,63.4,30.10,West,270,1.6,3.1,53,0.00,,,0.00,pywws,2013-05-11 17:11:00,
2013-05-11 13:16:00,82.9,64.0,30.10,North,0,0.7,2.2,53,0.00,,,0.00,pywws,2013-05-11 17:16:00,
2013-05-11 13:21:00,82.9,62.9,30.10,SW,225,1.6,5.4,51,0.00,,,0.00,pywws,2013-05-11 17:21:00,
2013-05-11 13:31:00,81.5,62.7,30.09,West,270,3.8,6.9,53,0.00,,,0.00,pywws,2013-05-11 17:31:00,
2013-05-11 13:36:00,80.8,63.1,30.09,West,270,1.6,3.8,55,0.00,,,0.00,pywws,2013-05-11 17:36:00,
2013-05-11 13:41:00,80.4,62.7,30.09,West,270,3.1,5.4,55,0.00,,,0.00,pywws,2013-05-11 17:41:00,
2013-05-11 13:46:00,81.3,63.1,30.09,SSW,202,1.6,3.8,54,0.00,,,0.00,pywws,2013-05-11 17:46:00,
2013-05-11 13:51:00,81.0,63.2,30.09,SE,135,1.6,3.8,55,0.00,,,0.00,pywws,2013-05-11 17:51:00,
2013-05-11 14:01:00,80.8,64.1,30.09,West,270,3.1,6.0,57,0.00,,,0.00,pywws,2013-05-11 18:01:00,
2013-05-11 14:06:00,80.4,63.8,30.08,SE,135,0.7,2.2,57,0.00,,,0.00,pywws,2013-05-11 18:06:00,
2013-05-11 14:11:00,81.0,63.2,30.08,West,270,1.6,3.1,55,0.00,,,0.00,pywws,2013-05-11 18:11:00,
2013-05-11 14:16:00,81.1,63.4,30.08,WNW,292,2.2,4.5,55,0.00,,,0.00,pywws,2013-05-11 18:16:00,
2013-05-11 14:21:00,81.1,63.4,30.08,NW,315,2.2,5.4,55,0.00,,,0.00,pywws,2013-05-11 18:21:00,
2013-05-11 14:31:00,81.5,62.7,30.08,West,270,3.8,6.0,53,0.00,,,0.00,pywws,2013-05-11 18:31:00,
2013-05-11 14:36:00,81.5,63.7,30.08,NE,45,0.7,2.2,55,0.00,,,0.00,pywws,2013-05-11 18:36:00,
2013-05-11 14:41:00,82.0,63.7,30.08,WNW,292,1.6,4.5,54,0.00,,,0.00,pywws,2013-05-11 18:41:00,
2013-05-11 14:46:00,82.0,63.7,30.08,East,90,2.2,3.8,54,0.00,,,0.00,pywws,2013-05-11 18:46:00,
2013-05-11 14:51:00,82.2,62.8,30.07,West,270,4.5,6.9,52,0.00,,,0.00,pywws,2013-05-11 18:51:00,
2013-05-11 15:01:00,82.4,63.5,30.07,West,270,2.2,3.1,53,0.00,,,0.00,pywws,2013-05-11 19:01:00,
2013-05-11 15:06:00,82.9,62.9,30.07,West,270,1.6,3.1,51,0.00,,,0.00,pywws,2013-05-11 19:06:00,
2013-05-11 15:11:00,82.4,62.4,30.07,West,270,4.5,7.6,51,0.00,,,0.00,pywws,2013-05-11 19:11:00,
2013-05-11 15:16:00,82.0,63.2,30.07,NW,315,1.6,3.8,53,0.00,,,0.00,pywws,2013-05-11 19:16:00,
2013-05-11 15:21:00,82.0,63.7,30.07,SW,225,2.2,5.4,54,0.00,,,0.00,pywws,2013-05-11 19:21:00,
2013-05-11 15:31:00,81.7,62.9,30.06,SE,135,1.6,4.5,53,0.00,,,0.00,pywws,2013-05-11 19:31:00,
2013-05-11 15:36:00,82.0,63.7,30.06,SW,225,1.6,3.8,54,0.00,,,0.00,pywws,2013-05-11 19:36:00,
2013-05-11 15:41:00,82.4,64.1,30.06,SW,225,2.2,4.5,54,0.00,,,0.00,pywws,2013-05-11 19:41:00,
2013-05-11 15:46:00,82.6,63.7,30.06,South,180,2.2,4.5,53,0.00,,,0.00,pywws,2013-05-11 19:46:00,
2013-05-11 15:51:00,82.0,63.2,30.06,SW,225,2.2,3.8,53,0.00,,,0.00,pywws,2013-05-11 19:51:00,
2013-05-11 16:01:00,82.0,63.2,30.06,SW,225,2.2,3.8,53,0.00,,,0.00,pywws,2013-05-11 20:01:00,
2013-05-11 16:06:00,81.1,63.9,30.06,West,270,1.6,3.1,56,0.00,,,0.00,pywws,2013-05-11 20:06:00,
2013-05-11 16:11:00,81.1,63.4,30.06,West,270,6.9,8.3,55,0.00,,,0.00,pywws,2013-05-11 20:11:00,
2013-05-11 16:16:00,80.4,63.3,30.06,SW,225,2.2,3.8,56,0.00,,,0.00,pywws,2013-05-11 20:16:00,
2013-05-11 16:21:00,80.8,63.6,30.06,SE,135,1.6,2.2,56,0.00,,,0.00,pywws,2013-05-11 20:21:00,
2013-05-11 16:31:00,81.1,63.9,30.05,South,180,2.2,4.5,56,0.00,,,0.00,pywws,2013-05-11 20:31:00,
2013-05-11 16:36:00,81.1,63.9,30.05,SW,225,2.2,3.8,56,0.00,,,0.00,pywws,2013-05-11 20:36:00,
2013-05-11 16:41:00,81.1,63.4,30.05,South,180,2.2,4.5,55,0.00,,,0.00,pywws,2013-05-11 20:41:00,
2013-05-11 16:46:00,81.0,64.3,30.05,West,270,0.7,3.1,57,0.00,,,0.00,pywws,2013-05-11 20:46:00,
2013-05-11 16:51:00,80.8,64.1,30.05,SSE,158,1.6,4.5,57,0.00,,,0.00,pywws,2013-05-11 20:51:00,
2013-05-11 17:01:00,80.8,63.6,30.05,West,270,3.8,6.9,56,0.00,,,0.00,pywws,2013-05-11 21:01:00,
2013-05-11 17:06:00,80.2,63.6,30.05,NW,315,2.2,4.5,57,0.00,,,0.00,pywws,2013-05-11 21:06:00,
2013-05-11 17:11:00,80.1,63.4,30.05,West,270,4.5,8.3,57,0.00,,,0.00,pywws,2013-05-11 21:11:00,
2013-05-11 17:16:00,79.9,63.8,30.05,SE,135,0.7,2.2,58,0.00,,,0.00,pywws,2013-05-11 21:16:00,
2013-05-11 17:21:00,79.9,63.8,30.05,NW,315,0.7,3.8,58,0.00,,,0.00,pywws,2013-05-11 21:21:00,
2013-05-11 17:31:00,79.7,63.6,30.05,SW,225,2.2,3.8,58,0.00,,,0.00,pywws,2013-05-11 21:31:00,
2013-05-11 17:36:00,79.5,64.4,30.05,West,270,0.7,2.2,60,0.00,,,0.00,pywws,2013-05-11 21:36:00,
2013-05-11 17:41:00,79.2,64.1,30.05,NW,315,1.6,3.8,60,0.00,,,0.00,pywws,2013-05-11 21:41:00,
2013-05-11 17:46:00,79.2,64.5,30.05,NW,315,0.7,2.2,61,0.00,,,0.00,pywws,2013-05-11 21:46:00,
2013-05-11 17:51:00,79.2,64.5,30.05,West,270,0.7,2.2,61,0.00,,,0.00,pywws,2013-05-11 21:51:00,
2013-05-11 18:01:00,79.0,63.9,30.05,NW,315,3.1,5.4,60,0.00,,,0.00,pywws,2013-05-11 22:01:00,
2013-05-11 18:06:00,78.6,64.0,30.05,SE,135,0.7,3.1,61,0.00,,,0.00,pywws,2013-05-11 22:06:00,
2013-05-11 18:11:00,78.4,64.3,30.05,NW,315,0.7,2.2,62,0.00,,,0.00,pywws,2013-05-11 22:11:00,
2013-05-11 18:16:00,78.3,64.2,30.05,SW,225,0.7,2.2,62,0.00,,,0.00,pywws,2013-05-11 22:16:00,
2013-05-11 18:21:00,78.1,64.0,30.05,SE,135,4.5,6.9,62,0.00,,,0.00,pywws,2013-05-11 22:21:00,
2013-05-11 18:31:00,77.9,64.3,30.05,North,0,0.0,1.6,63,0.00,,,0.00,pywws,2013-05-11 22:31:00,
2013-05-11 18:36:00,77.7,64.1,30.05,NW,315,0.7,1.6,63,0.00,,,0.00,pywws,2013-05-11 22:36:00,
2013-05-11 18:41:00,77.5,64.4,30.05,SE,135,1.6,3.1,64,0.00,,,0.00,pywws,2013-05-11 22:41:00,
2013-05-11 18:46:00,77.5,64.4,30.05,West,270,0.7,2.2,64,0.00,,,0.00,pywws,2013-05-11 22:46:00,
2013-05-11 18:51:00,77.4,64.2,30.05,NE,45,0.7,2.2,64,0.00,,,0.00,pywws,2013-05-11 22:51:00,
2013-05-11 19:01:00,77.2,64.5,30.05,NE,45,0.7,2.2,65,0.00,,,0.00,pywws,2013-05-11 23:01:00,
2013-05-11 19:06:00,77.0,64.3,30.05,South,180,0.7,3.1,65,0.00,,,0.00,pywws,2013-05-11 23:06:00,
2013-05-11 19:11:00,76.8,64.6,30.05,NW,315,0.0,2.2,66,0.00,,,0.00,pywws,2013-05-11 23:11:00,
2013-05-11 19:16:00,76.6,64.4,30.05,SW,225,1.6,3.1,66,0.00,,,0.00,pywws,2013-05-11 23:16:00,
2013-05-11 19:21:00,76.5,64.2,30.05,SW,225,0.7,1.6,66,0.00,,,0.00,pywws,2013-05-11 23:21:00,
2013-05-11 19:31:00,76.5,63.8,30.05,SE,135,1.6,3.8,65,0.00,,,0.00,pywws,2013-05-11 23:31:00,
2013-05-11 19:36:00,76.3,63.6,30.05,SE,135,0.0,1.6,65,0.00,,,0.00,pywws,2013-05-11 23:36:00,
2013-05-11 19:41:00,76.1,63.5,30.05,SE,135,0.0,0.7,65,0.00,,,0.00,pywws,2013-05-11 23:41:00,
2013-05-11 19:46:00,75.9,63.7,30.05,West,270,0.0,0.7,66,0.00,,,0.00,pywws,2013-05-11 23:46:00,
2013-05-11 19:51:00,75.7,63.6,30.05,NW,315,0.0,0.7,66,0.00,,,0.00,pywws,2013-05-11 23:51:00,
2013-05-11 20:01:00,75.6,63.8,30.05,SE,135,0.0,2.2,67,0.00,,,0.00,pywws,2013-05-12 00:01:00,
2013-05-11 20:05:00,75.0,64.1,30.05,SW,225,0.7,1.6,69,0.00,,,0.00,pywws,2013-05-12 00:05:00,
2013-05-11 20:10:00,74.7,64.2,30.05,SW,225,0.0,1.6,70,0.00,,,0.00,pywws,2013-05-12 00:10:00,
2013-05-11 20:15:00,74.7,64.6,30.05,SW,225,0.7,2.2,71,0.00,,,0.00,pywws,2013-05-12 00:15:00,
2013-05-11 20:20:00,74.5,64.4,30.05,SW,225,1.6,3.1,71,0.00,,,0.00,pywws,2013-05-12 00:20:00,
2013-05-11 20:31:00,74.3,64.3,30.05,SW,225,0.0,1.6,71,0.00,,,0.00,pywws,2013-05-12 00:31:00,
2013-05-11 20:36:00,73.9,64.3,30.05,South,180,0.0,2.2,72,0.00,,,0.00,pywws,2013-05-12 00:36:00,
2013-05-11 20:41:00,73.9,64.3,30.05,West,270,0.7,2.2,72,0.00,,,0.00,pywws,2013-05-12 00:41:00,
2013-05-11 20:46:00,73.9,64.3,30.05,South,180,0.0,0.7,72,0.00,,,0.00,pywws,2013-05-12 00:46:00,
2013-05-11 20:51:00,73.9,64.3,30.05,SE,135,1.6,2.2,72,0.00,,,0.00,pywws,2013-05-12 00:51:00,
2013-05-11 21:01:00,73.8,64.2,30.05,North,0,0.7,1.6,72,0.00,,,0.00,pywws,2013-05-12 01:01:00,
2013-05-11 21:06:00,73.8,64.2,30.05,NW,315,0.0,0.7,72,0.00,,,0.00,pywws,2013-05-12 01:06:00,
2013-05-11 21:11:00,73.8,64.2,30.05,West,270,0.7,1.6,72,0.00,,,0.00,pywws,2013-05-12 01:11:00,
2013-05-11 21:16:00,73.8,64.2,30.05,South,180,0.0,0.7,72,0.00,,,0.00,pywws,2013-05-12 01:16:00,
2013-05-11 21:21:00,73.6,64.0,30.05,NW,315,0.0,0.7,72,0.00,,,0.00,pywws,2013-05-12 01:21:00,
2013-05-11 21:31:00,73.6,64.0,30.05,West,270,0.0,0.7,72,0.00,,,0.00,pywws,2013-05-12 01:31:00,
2013-05-11 21:36:00,73.6,64.0,30.05,NW,315,0.0,1.6,72,0.00,,,0.00,pywws,2013-05-12 01:36:00,
2013-05-11 21:41:00,73.6,64.0,30.05,West,270,1.6,3.1,72,0.00,,,0.00,pywws,2013-05-12 01:41:00,
2013-05-11 21:46:00,73.6,64.0,30.05,West,270,0.7,2.2,72,0.00,,,0.00,pywws,2013-05-12 01:46:00,
2013-05-11 21:51:00,73.6,64.0,30.05,West,270,0.0,1.6,72,0.00,,,0.00,pywws,2013-05-12 01:51:00,
2013-05-11 22:01:00,73.6,64.0,30.05,South,180,0.7,2.2,72,0.00,,,0.00,pywws,2013-05-12 02:01:00,
2013-05-11 22:06:00,73.4,64.2,30.05,SE,135,1.6,3.1,73,0.00,,,0.00,pywws,2013-05-12 02:06:00,
2013-05-11 22:11:00,73.4,64.2,30.05,West,270,0.7,2.2,73,0.00,,,0.00,pywws,2013-05-12 02:11:00,
2013-05-11 22:16:00,73.4,64.2,30.05,NW,315,1.6,2.2,73,0.00,,,0.00,pywws,2013-05-12 02:16:00,
2013-05-11 22:21:00,73.4,64.2,30.05,NW,315,0.7,1.6,73,0.00,,,0.00,pywws,2013-05-12 02:21:00,
2013-05-11 22:31:00,73.4,64.2,30.05,SW,225,0.0,0.7,73,0.00,,,0.00,pywws,2013-05-12 02:31:00,
2013-05-11 22:36:00,73.2,64.0,30.05,SE,135,1.6,2.2,73,0.00,,,0.00,pywws,2013-05-12 02:36:00,
2013-05-11 22:41:00,73.0,64.2,30.05,West,270,0.7,2.2,74,0.00,,,0.00,pywws,2013-05-12 02:41:00,
2013-05-11 22:46:00,73.0,64.2,30.05,West,270,0.7,2.2,74,0.00,,,0.00,pywws,2013-05-12 02:46:00,
2013-05-11 22:51:00,72.9,64.1,30.05,South,180,0.0,0.7,74,0.00,,,0.00,pywws,2013-05-12 02:51:00,
2013-05-11 23:01:00,72.7,63.9,30.05,South,180,0.0,0.0,74,0.00,,,0.00,pywws,2013-05-12 03:01:00,
2013-05-11 23:06:00,72.5,63.7,30.05,NW,315,0.0,0.7,74,0.00,,,0.00,pywws,2013-05-12 03:06:00,
2013-05-11 23:11:00,72.3,63.9,30.05,West,270,0.0,0.7,75,0.00,,,0.00,pywws,2013-05-12 03:11:00,
2013-05-11 23:16:00,72.3,63.9,30.05,West,270,0.7,1.6,75,0.00,,,0.00,pywws,2013-05-12 03:16:00,
2013-05-11 23:21:00,72.3,63.9,30.05,West,270,0.0,1.6,75,0.00,,,0.00,pywws,2013-05-12 03:21:00,
2013-05-11 23:31:00,72.3,63.9,30.05,West,270,0.0,0.7,75,0.00,,,0.00,pywws,2013-05-12 03:31:00,
2013-05-11 23:36:00,72.1,63.8,30.05,West,270,0.0,0.7,75,0.00,,,0.00,pywws,2013-05-12 03:36:00,
2013-05-11 23:41:00,72.0,63.6,30.05,West,270,0.0,0.7,75,0.00,,,0.00,pywws,2013-05-12 03:41:00,
2013-05-11 23:46:00,71.8,63.4,30.05,West,270,0.0,1.6,75,0.00,,,0.00,pywws,2013-05-12 03:46:00,
2013-05-11 23:51:00,71.6,63.6,30.05,WSW,248,0.0,1.6,76,0.00,,,0.00,pywws,2013-05-12 03:51:00,